Terminal Aerodrome Forecast
Issued by NWS Pocatello, ID

Home | Current Version | Previous Version | Text Only | Print | Product List | Glossary On
Versions: 1 2 3 4 5 6 7 8 9 10 11 12 13 14 15
000
FTUS45 KPIH 231100
TAFBYI
TAF
KBYI 231120Z 2312/2412 24010G20KT P6SM FEW200
     FM232000 27010G20KT P6SM SCT200
     FM240300 24010KT P6SM VCSH SCT110 BKN140
     FM240900 26010G20KT P6SM SCT120=

USA.gov is the U.S. government's official web portal to all federal, state and local government web resources and services.